Santa Ana, Argentina
Current Conditions -  °F | °C
As of 3:00 PM on Monday 20 Oct 2014 (Local Time) from SGEN Reporting Station
Scattered Clouds Scattered Clouds  
Wind Chill: 30°   Ceiling: Unl
Heat Index: 30°   Visibility: 6mi
Dew Point: 11°   Wind: 7mph
Humidity: 31%   Direction: 170°S
Pressure: 30"   Gusts: NA
Location:  27.37°S, 55.57°W
Report Text: SGEN 201800Z 17006KT 9999 FEW030 SCT200 30/11 Q1016
Loading
Personal Weather Stations






























Interactive Weather Map
Tropical Storm Tracking
New forecast layout! Learn more

10-Day Weather Forecast

Advertisements
Track Severe Weather on mobile